NCAR-RAP Real-Time Weather Data

Output produced by METARs form (12 August 2020  18:19 UTC)
found at http://weather.rap.ucar.edu/surface/
 
KGTF 121753Z 26015G21KT 10SM CLR 27/00 A2980 RMK AO2 SLP057 T02720000 10278 20117 51007 $
KGTF 121653Z 24017G26KT 10SM CLR 27/M01 A2980 RMK AO2 PK WND 25026/1653 SLP056 T02721006 $
KGTF 121553Z 23013KT 10SM CLR 24/03 A2978 RMK AO2 SLP050 T02440028 $
KGTF 121453Z 19009KT 10SM CLR 22/02 A2978 RMK AO2 SLP051 T02170022 53006 $
KGTF 121353Z 21009KT 10SM CLR 22/02 A2977 RMK AO2 SLP040 T02170017 $
KGTF 121253Z 20009KT 10SM CLR 18/01 A2976 RMK AO2 SLP040 T01780011 $
KGTF 121153Z 20009KT 10SM CLR 11/01 A2976 RMK AO2 SLP044 T01110006 10200 20106 50003 $
KGTF 121053Z 23005KT 10SM CLR 13/01 A2976 RMK AO2 SLP046 T01280006 $
KGTF 120953Z 24005KT 10SM CLR 13/00 A2975 RMK AO2 SLP040 T01280000 $
KGTF 120853Z 21005KT 10SM CLR 16/00 A2975 RMK AO2 SLP039 T01610000 58005 $
KGTF 120753Z 15003KT 10SM CLR 17/00 A2976 RMK AO2 SLP043 T01720000 $
KGTF 120653Z 09005KT 10SM CLR 16/01 A2977 RMK AO2 SLP047 T01610006 403220094 $
KGTF 120553Z 16003KT 10SM CLR 18/00 A2977 RMK AO2 SLP045 T01830000 10317 20167 50003 $
KGTF 120453Z 17007KT 10SM CLR 19/00 A2978 RMK AO2 SLP050 T01940000 $
KGTF 120353Z 22003KT 10SM CLR 22/M01 A2978 RMK AO2 SLP049 T02171011 $
KGTF 120253Z 29007KT 10SM CLR 21/00 A2976 RMK AO2 SLP046 T02110000 55003 $
KGTF 120153Z 28011KT 10SM CLR 29/00 A2975 RMK AO2 SLP036 T02890000 $
KGTF 120053Z 26015KT 10SM CLR 31/M01 A2975 RMK AO2 SLP039 T03061006 $
KGTF 112353Z 26017G25KT 10SM CLR 32/M01 A2977 RMK AO2 SLP047 T03171006 10322 20278 56019 $
KGTF 112253Z 26013G21KT 10SM CLR 32/M01 A2978 RMK AO2 SLP051 T03171011 $